sensor_id;sensor_type;location;lat;lon;timestamp;P1;durP1;ratioP1;P2;durP2;ratioP2
40449;SDS011;41787;53.570;10.032;2022-10-15T00:00:47;23.73;;;12.63;;
40449;SDS011;41787;53.570;10.032;2022-10-15T00:03:13;18.35;;;10.98;;
40449;SDS011;41787;53.570;10.032;2022-10-15T00:05:39;14.57;;;11.15;;
40449;SDS011;41787;53.570;10.032;2022-10-15T00:08:06;14.48;;;11.32;;
40449;SDS011;41787;53.570;10.032;2022-10-15T00:10:32;21.60;;;12.20;;
40449;SDS011;41787;53.570;10.032;2022-10-15T00:12:58;22.33;;;11.82;;
40449;SDS011;41787;53.570;10.032;2022-10-15T00:15:25;18.35;;;12.02;;
40449;SDS011;41787;53.570;10.032;2022-10-15T00:17:51;19.27;;;11.98;;
40449;SDS011;41787;53.570;10.032;2022-10-15T00:20:17;20.85;;;12.90;;
40449;SDS011;41787;53.570;10.032;2022-10-15T00:22:43;18.55;;;12.05;;
40449;SDS011;41787;53.570;10.032;2022-10-15T00:25:10;21.27;;;13.57;;
40449;SDS011;41787;53.570;10.032;2022-10-15T00:27:36;18.60;;;12.93;;
40449;SDS011;41787;53.570;10.032;2022-10-15T00:30:03;19.92;;;12.35;;
40449;SDS011;41787;53.570;10.032;2022-10-15T00:32:29;19.77;;;13.75;;
40449;SDS011;41787;53.570;10.032;2022-10-15T00:34:55;21.70;;;13.13;;
40449;SDS011;41787;53.570;10.032;2022-10-15T00:37:21;23.95;;;13.70;;
40449;SDS011;41787;53.570;10.032;2022-10-15T00:39:47;27.02;;;14.40;;
40449;SDS011;41787;53.570;10.032;2022-10-15T00:42:14;25.60;;;13.85;;
40449;SDS011;41787;53.570;10.032;2022-10-15T00:44:45;26.83;;;14.48;;
40449;SDS011;41787;53.570;10.032;2022-10-15T00:49:53;24.55;;;14.60;;
40449;SDS011;41787;53.570;10.032;2022-10-15T00:52:22;25.88;;;15.48;;
40449;SDS011;41787;53.570;10.032;2022-10-15T00:54:50;26.05;;;14.75;;
40449;SDS011;41787;53.570;10.032;2022-10-15T00:57:17;28.63;;;16.13;;
40449;SDS011;41787;53.570;10.032;2022-10-15T00:59:46;21.35;;;15.20;;
40449;SDS011;41787;53.570;10.032;2022-10-15T01:02:13;24.45;;;15.82;;
40449;SDS011;41787;53.570;10.032;2022-10-15T01:04:40;24.88;;;16.52;;
40449;SDS011;41787;53.570;10.032;2022-10-15T01:07:06;23.73;;;15.40;;
40449;SDS011;41787;53.570;10.032;2022-10-15T01:09:32;24.90;;;17.95;;
40449;SDS011;41787;53.570;10.032;2022-10-15T01:11:58;33.78;;;20.17;;
40449;SDS011;41787;53.570;10.032;2022-10-15T01:14:28;34.97;;;19.95;;
40449;SDS011;41787;53.570;10.032;2022-10-15T01:17:00;31.95;;;21.38;;
40449;SDS011;41787;53.570;10.032;2022-10-15T01:19:38;30.40;;;20.67;;
40449;SDS011;41787;53.570;10.032;2022-10-15T01:24:44;32.95;;;21.15;;
40449;SDS011;41787;53.570;10.032;2022-10-15T01:27:27;32.63;;;20.45;;
40449;SDS011;41787;53.570;10.032;2022-10-15T01:30:00;33.38;;;21.67;;
40449;SDS011;41787;53.570;10.032;2022-10-15T01:32:29;30.30;;;21.33;;
40449;SDS011;41787;53.570;10.032;2022-10-15T01:37:40;36.78;;;21.95;;
40449;SDS011;41787;53.570;10.032;2022-10-15T01:43:02;33.97;;;22.33;;
40449;SDS011;41787;53.570;10.032;2022-10-15T01:45:31;33.58;;;22.42;;
40449;SDS011;41787;53.570;10.032;2022-10-15T01:47:59;33.92;;;20.40;;
40449;SDS011;41787;53.570;10.032;2022-10-15T01:50:27;33.42;;;21.10;;
40449;SDS011;41787;53.570;10.032;2022-10-15T01:52:55;34.45;;;21.55;;
40449;SDS011;41787;53.570;10.032;2022-10-15T01:55:22;33.00;;;22.00;;
40449;SDS011;41787;53.570;10.032;2022-10-15T01:57:48;32.65;;;20.95;;
40449;SDS011;41787;53.570;10.032;2022-10-15T02:00:14;34.20;;;22.73;;
40449;SDS011;41787;53.570;10.032;2022-10-15T02:02:41;37.08;;;22.92;;
40449;SDS011;41787;53.570;10.032;2022-10-15T02:05:09;35.78;;;22.92;;
40449;SDS011;41787;53.570;10.032;2022-10-15T02:10:35;39.75;;;24.45;;
40449;SDS011;41787;53.570;10.032;2022-10-15T02:13:06;36.40;;;23.45;;
40449;SDS011;41787;53.570;10.032;2022-10-15T02:15:50;37.80;;;22.67;;
40449;SDS011;41787;53.570;10.032;2022-10-15T02:20:45;35.67;;;22.58;;
40449;SDS011;41787;53.570;10.032;2022-10-15T02:23:17;33.50;;;22.17;;
40449;SDS011;41787;53.570;10.032;2022-10-15T02:25:45;35.85;;;22.48;;
40449;SDS011;41787;53.570;10.032;2022-10-15T02:28:12;32.72;;;22.67;;
40449;SDS011;41787;53.570;10.032;2022-10-15T02:30:39;38.13;;;24.05;;
40449;SDS011;41787;53.570;10.032;2022-10-15T02:33:06;36.60;;;23.55;;
40449;SDS011;41787;53.570;10.032;2022-10-15T02:35:33;34.88;;;23.35;;
40449;SDS011;41787;53.570;10.032;2022-10-15T02:38:01;36.88;;;24.05;;
40449;SDS011;41787;53.570;10.032;2022-10-15T02:40:28;35.53;;;23.17;;
40449;SDS011;41787;53.570;10.032;2022-10-15T02:42:57;34.72;;;23.38;;
40449;SDS011;41787;53.570;10.032;2022-10-15T02:45:24;36.47;;;23.90;;
40449;SDS011;41787;53.570;10.032;2022-10-15T02:47:50;36.70;;;22.80;;
40449;SDS011;41787;53.570;10.032;2022-10-15T02:50:15;37.80;;;24.15;;
40449;SDS011;41787;53.570;10.032;2022-10-15T02:52:41;36.15;;;23.67;;
40449;SDS011;41787;53.570;10.032;2022-10-15T02:55:07;41.85;;;24.35;;
40449;SDS011;41787;53.570;10.032;2022-10-15T02:57:33;37.47;;;24.70;;
40449;SDS011;41787;53.570;10.032;2022-10-15T02:59:59;31.10;;;20.50;;
40449;SDS011;41787;53.570;10.032;2022-10-15T03:02:25;37.00;;;24.25;;
40449;SDS011;41787;53.570;10.032;2022-10-15T03:04:51;35.55;;;23.52;;
40449;SDS011;41787;53.570;10.032;2022-10-15T03:07:17;36.83;;;22.98;;
40449;SDS011;41787;53.570;10.032;2022-10-15T03:09:43;34.40;;;22.38;;
40449;SDS011;41787;53.570;10.032;2022-10-15T03:12:09;31.38;;;21.13;;
40449;SDS011;41787;53.570;10.032;2022-10-15T03:14:35;32.95;;;22.00;;
40449;SDS011;41787;53.570;10.032;2022-10-15T03:17:01;27.02;;;17.48;;
40449;SDS011;41787;53.570;10.032;2022-10-15T03:19:27;26.85;;;19.52;;
40449;SDS011;41787;53.570;10.032;2022-10-15T03:21:53;25.83;;;17.63;;
40449;SDS011;41787;53.570;10.032;2022-10-15T03:24:19;27.30;;;17.58;;
40449;SDS011;41787;53.570;10.032;2022-10-15T03:26:45;29.02;;;18.15;;
40449;SDS011;41787;53.570;10.032;2022-10-15T03:29:10;30.55;;;16.27;;
40449;SDS011;41787;53.570;10.032;2022-10-15T03:31:36;24.25;;;16.65;;
40449;SDS011;41787;53.570;10.032;2022-10-15T03:34:02;28.05;;;16.58;;
40449;SDS011;41787;53.570;10.032;2022-10-15T03:36:28;26.38;;;16.45;;
40449;SDS011;41787;53.570;10.032;2022-10-15T03:38:54;32.75;;;17.55;;
40449;SDS011;41787;53.570;10.032;2022-10-15T03:41:20;26.60;;;18.15;;
40449;SDS011;41787;53.570;10.032;2022-10-15T03:43:46;28.80;;;18.13;;
40449;SDS011;41787;53.570;10.032;2022-10-15T03:46:12;32.30;;;18.77;;
40449;SDS011;41787;53.570;10.032;2022-10-15T03:48:39;32.60;;;19.77;;
40449;SDS011;41787;53.570;10.032;2022-10-15T03:51:05;36.13;;;19.10;;
40449;SDS011;41787;53.570;10.032;2022-10-15T03:53:31;37.72;;;21.25;;
40449;SDS011;41787;53.570;10.032;2022-10-15T03:56:03;32.13;;;18.70;;
40449;SDS011;41787;53.570;10.032;2022-10-15T03:58:29;34.63;;;19.10;;
40449;SDS011;41787;53.570;10.032;2022-10-15T04:00:55;33.92;;;17.95;;
40449;SDS011;41787;53.570;10.032;2022-10-15T04:03:21;32.40;;;18.58;;
40449;SDS011;41787;53.570;10.032;2022-10-15T04:05:50;34.22;;;20.58;;
40449;SDS011;41787;53.570;10.032;2022-10-15T04:08:16;29.88;;;18.63;;
40449;SDS011;41787;53.570;10.032;2022-10-15T04:10:43;36.95;;;18.98;;
40449;SDS011;41787;53.570;10.032;2022-10-15T04:13:09;33.80;;;18.80;;
40449;SDS011;41787;53.570;10.032;2022-10-15T04:15:37;35.03;;;18.58;;
40449;SDS011;41787;53.570;10.032;2022-10-15T04:18:03;33.75;;;20.55;;
40449;SDS011;41787;53.570;10.032;2022-10-15T04:20:29;37.92;;;20.17;;
40449;SDS011;41787;53.570;10.032;2022-10-15T04:22:55;33.05;;;18.98;;
40449;SDS011;41787;53.570;10.032;2022-10-15T04:25:21;33.08;;;18.17;;
40449;SDS011;41787;53.570;10.032;2022-10-15T04:27:47;36.50;;;19.00;;
40449;SDS011;41787;53.570;10.032;2022-10-15T04:30:13;38.33;;;19.98;;
40449;SDS011;41787;53.570;10.032;2022-10-15T04:32:39;33.15;;;18.95;;
40449;SDS011;41787;53.570;10.032;2022-10-15T04:35:05;37.85;;;19.02;;
40449;SDS011;41787;53.570;10.032;2022-10-15T04:37:32;33.60;;;19.42;;
40449;SDS011;41787;53.570;10.032;2022-10-15T04:39:58;33.90;;;20.50;;
40449;SDS011;41787;53.570;10.032;2022-10-15T04:42:24;34.10;;;19.58;;
40449;SDS011;41787;53.570;10.032;2022-10-15T04:44:50;37.53;;;20.35;;
40449;SDS011;41787;53.570;10.032;2022-10-15T04:47:16;40.17;;;19.85;;
40449;SDS011;41787;53.570;10.032;2022-10-15T04:49:42;42.40;;;21.50;;
40449;SDS011;41787;53.570;10.032;2022-10-15T04:52:07;39.13;;;21.08;;
40449;SDS011;41787;53.570;10.032;2022-10-15T04:54:33;41.03;;;21.42;;
40449;SDS011;41787;53.570;10.032;2022-10-15T04:56:59;37.55;;;21.38;;
40449;SDS011;41787;53.570;10.032;2022-10-15T04:59:25;45.55;;;22.10;;
40449;SDS011;41787;53.570;10.032;2022-10-15T05:01:51;45.13;;;22.98;;
40449;SDS011;41787;53.570;10.032;2022-10-15T05:04:17;42.67;;;22.65;;
40449;SDS011;41787;53.570;10.032;2022-10-15T05:06:43;39.13;;;22.45;;
40449;SDS011;41787;53.570;10.032;2022-10-15T05:09:09;53.45;;;22.40;;
40449;SDS011;41787;53.570;10.032;2022-10-15T05:11:35;43.53;;;21.67;;
40449;SDS011;41787;53.570;10.032;2022-10-15T05:14:02;41.50;;;21.65;;
40449;SDS011;41787;53.570;10.032;2022-10-15T05:16:28;38.90;;;21.65;;
40449;SDS011;41787;53.570;10.032;2022-10-15T05:18:56;44.88;;;22.48;;
40449;SDS011;41787;53.570;10.032;2022-10-15T05:21:22;47.83;;;22.75;;
40449;SDS011;41787;53.570;10.032;2022-10-15T05:23:48;41.13;;;21.85;;
40449;SDS011;41787;53.570;10.032;2022-10-15T05:26:16;42.95;;;22.17;;
40449;SDS011;41787;53.570;10.032;2022-10-15T05:28:42;42.55;;;21.48;;
40449;SDS011;41787;53.570;10.032;2022-10-15T05:31:09;43.42;;;23.08;;
40449;SDS011;41787;53.570;10.032;2022-10-15T05:33:35;43.03;;;22.92;;
40449;SDS011;41787;53.570;10.032;2022-10-15T05:36:06;41.45;;;23.13;;
40449;SDS011;41787;53.570;10.032;2022-10-15T05:38:32;44.53;;;22.17;;
40449;SDS011;41787;53.570;10.032;2022-10-15T05:40:58;47.58;;;24.30;;
40449;SDS011;41787;53.570;10.032;2022-10-15T05:43:24;44.10;;;22.67;;
40449;SDS011;41787;53.570;10.032;2022-10-15T05:45:53;42.92;;;22.42;;
40449;SDS011;41787;53.570;10.032;2022-10-15T05:48:19;44.67;;;23.73;;
40449;SDS011;41787;53.570;10.032;2022-10-15T05:50:45;43.88;;;23.30;;
40449;SDS011;41787;53.570;10.032;2022-10-15T05:53:11;40.60;;;21.88;;
40449;SDS011;41787;53.570;10.032;2022-10-15T05:55:37;38.45;;;21.40;;
40449;SDS011;41787;53.570;10.032;2022-10-15T05:58:03;45.50;;;22.67;;
40449;SDS011;41787;53.570;10.032;2022-10-15T06:00:29;45.78;;;22.60;;
40449;SDS011;41787;53.570;10.032;2022-10-15T06:02:56;46.75;;;23.73;;
40449;SDS011;41787;53.570;10.032;2022-10-15T06:05:22;48.85;;;24.52;;
40449;SDS011;41787;53.570;10.032;2022-10-15T06:07:48;44.15;;;24.25;;
40449;SDS011;41787;53.570;10.032;2022-10-15T06:10:14;44.42;;;24.95;;
40449;SDS011;41787;53.570;10.032;2022-10-15T06:12:41;42.25;;;22.80;;
40449;SDS011;41787;53.570;10.032;2022-10-15T06:15:08;40.67;;;22.52;;
40449;SDS011;41787;53.570;10.032;2022-10-15T06:17:34;47.30;;;24.98;;
40449;SDS011;41787;53.570;10.032;2022-10-15T06:20:00;51.72;;;25.80;;
40449;SDS011;41787;53.570;10.032;2022-10-15T06:22:28;53.13;;;24.83;;
40449;SDS011;41787;53.570;10.032;2022-10-15T06:24:54;43.10;;;24.13;;
40449;SDS011;41787;53.570;10.032;2022-10-15T06:27:20;44.95;;;24.65;;
40449;SDS011;41787;53.570;10.032;2022-10-15T06:29:46;47.08;;;24.75;;
40449;SDS011;41787;53.570;10.032;2022-10-15T06:32:12;50.05;;;26.08;;
40449;SDS011;41787;53.570;10.032;2022-10-15T06:34:38;47.20;;;24.08;;
40449;SDS011;41787;53.570;10.032;2022-10-15T06:37:04;45.95;;;23.42;;
40449;SDS011;41787;53.570;10.032;2022-10-15T06:39:30;45.03;;;24.45;;
40449;SDS011;41787;53.570;10.032;2022-10-15T06:41:56;48.78;;;25.30;;
40449;SDS011;41787;53.570;10.032;2022-10-15T06:44:22;44.55;;;24.02;;
40449;SDS011;41787;53.570;10.032;2022-10-15T06:46:48;41.67;;;23.50;;
40449;SDS011;41787;53.570;10.032;2022-10-15T06:49:14;56.47;;;24.83;;
40449;SDS011;41787;53.570;10.032;2022-10-15T06:51:40;43.83;;;25.25;;
40449;SDS011;41787;53.570;10.032;2022-10-15T06:54:06;48.50;;;24.80;;
40449;SDS011;41787;53.570;10.032;2022-10-15T06:56:32;44.65;;;24.83;;
40449;SDS011;41787;53.570;10.032;2022-10-15T06:58:58;43.15;;;22.85;;
40449;SDS011;41787;53.570;10.032;2022-10-15T07:01:24;50.25;;;25.08;;
40449;SDS011;41787;53.570;10.032;2022-10-15T07:03:50;45.47;;;24.00;;
40449;SDS011;41787;53.570;10.032;2022-10-15T07:06:16;50.42;;;26.52;;
40449;SDS011;41787;53.570;10.032;2022-10-15T07:08:42;47.58;;;25.15;;
40449;SDS011;41787;53.570;10.032;2022-10-15T07:11:09;49.65;;;25.80;;
40449;SDS011;41787;53.570;10.032;2022-10-15T07:13:35;54.88;;;25.40;;
40449;SDS011;41787;53.570;10.032;2022-10-15T07:16:05;45.42;;;23.95;;
40449;SDS011;41787;53.570;10.032;2022-10-15T07:20:57;52.28;;;24.27;;
40449;SDS011;41787;53.570;10.032;2022-10-15T07:23:23;46.50;;;24.77;;
40449;SDS011;41787;53.570;10.032;2022-10-15T07:25:49;46.10;;;22.92;;
40449;SDS011;41787;53.570;10.032;2022-10-15T07:28:15;43.25;;;24.17;;
40449;SDS011;41787;53.570;10.032;2022-10-15T07:30:41;46.22;;;24.02;;
40449;SDS011;41787;53.570;10.032;2022-10-15T07:33:07;44.10;;;23.23;;
40449;SDS011;41787;53.570;10.032;2022-10-15T07:35:33;43.97;;;22.98;;
40449;SDS011;41787;53.570;10.032;2022-10-15T07:37:59;47.17;;;23.10;;
40449;SDS011;41787;53.570;10.032;2022-10-15T07:40:26;41.83;;;22.45;;
40449;SDS011;41787;53.570;10.032;2022-10-15T07:42:52;36.20;;;20.15;;
40449;SDS011;41787;53.570;10.032;2022-10-15T07:45:18;44.85;;;20.67;;
40449;SDS011;41787;53.570;10.032;2022-10-15T07:47:44;39.63;;;20.83;;
40449;SDS011;41787;53.570;10.032;2022-10-15T07:50:10;39.58;;;21.40;;
40449;SDS011;41787;53.570;10.032;2022-10-15T07:52:36;39.67;;;22.38;;
40449;SDS011;41787;53.570;10.032;2022-10-15T07:55:02;39.40;;;21.52;;
40449;SDS011;41787;53.570;10.032;2022-10-15T07:57:28;33.67;;;20.23;;
40449;SDS011;41787;53.570;10.032;2022-10-15T07:59:54;36.78;;;20.15;;
40449;SDS011;41787;53.570;10.032;2022-10-15T08:02:20;34.28;;;20.10;;
40449;SDS011;41787;53.570;10.032;2022-10-15T08:04:46;38.10;;;20.70;;
40449;SDS011;41787;53.570;10.032;2022-10-15T08:07:12;32.75;;;19.38;;
40449;SDS011;41787;53.570;10.032;2022-10-15T08:09:38;37.60;;;20.40;;
40449;SDS011;41787;53.570;10.032;2022-10-15T08:12:04;36.80;;;20.63;;
40449;SDS011;41787;53.570;10.032;2022-10-15T08:14:31;32.88;;;20.02;;
40449;SDS011;41787;53.570;10.032;2022-10-15T08:16:57;36.13;;;19.02;;
40449;SDS011;41787;53.570;10.032;2022-10-15T08:19:23;35.30;;;20.13;;
40449;SDS011;41787;53.570;10.032;2022-10-15T08:21:49;34.95;;;19.50;;
40449;SDS011;41787;53.570;10.032;2022-10-15T08:24:15;35.42;;;18.42;;
40449;SDS011;41787;53.570;10.032;2022-10-15T08:26:41;35.90;;;20.27;;
40449;SDS011;41787;53.570;10.032;2022-10-15T08:29:08;35.40;;;19.88;;
40449;SDS011;41787;53.570;10.032;2022-10-15T08:31:34;39.05;;;21.27;;
40449;SDS011;41787;53.570;10.032;2022-10-15T08:34:00;36.97;;;20.08;;
40449;SDS011;41787;53.570;10.032;2022-10-15T08:36:27;29.77;;;18.42;;
40449;SDS011;41787;53.570;10.032;2022-10-15T08:38:53;31.50;;;18.58;;
40449;SDS011;41787;53.570;10.032;2022-10-15T08:41:29;36.00;;;19.50;;
40449;SDS011;41787;53.570;10.032;2022-10-15T08:43:57;35.53;;;19.58;;
40449;SDS011;41787;53.570;10.032;2022-10-15T08:46:43;34.22;;;20.63;;
40449;SDS011;41787;53.570;10.032;2022-10-15T08:49:24;34.03;;;18.70;;
40449;SDS011;41787;53.570;10.032;2022-10-15T08:51:53;34.38;;;18.00;;
40449;SDS011;41787;53.570;10.032;2022-10-15T08:54:21;37.63;;;19.00;;
40449;SDS011;41787;53.570;10.032;2022-10-15T08:56:48;37.13;;;19.77;;
40449;SDS011;41787;53.570;10.032;2022-10-15T08:59:39;34.13;;;19.00;;
40449;SDS011;41787;53.570;10.032;2022-10-15T09:02:18;34.30;;;19.25;;
40449;SDS011;41787;53.570;10.032;2022-10-15T09:04:51;34.85;;;19.90;;
40449;SDS011;41787;53.570;10.032;2022-10-15T09:07:21;40.75;;;19.73;;
40449;SDS011;41787;53.570;10.032;2022-10-15T09:10:11;34.17;;;18.85;;
40449;SDS011;41787;53.570;10.032;2022-10-15T09:15:08;33.13;;;18.65;;
40449;SDS011;41787;53.570;10.032;2022-10-15T09:17:35;34.13;;;19.05;;
40449;SDS011;41787;53.570;10.032;2022-10-15T09:20:03;32.88;;;18.92;;
40449;SDS011;41787;53.570;10.032;2022-10-15T09:22:30;31.48;;;18.40;;
40449;SDS011;41787;53.570;10.032;2022-10-15T09:24:56;30.35;;;18.02;;
40449;SDS011;41787;53.570;10.032;2022-10-15T09:27:35;36.05;;;19.40;;
40449;SDS011;41787;53.570;10.032;2022-10-15T09:32:50;34.15;;;19.77;;
40449;SDS011;41787;53.570;10.032;2022-10-15T09:35:18;33.42;;;18.13;;
40449;SDS011;41787;53.570;10.032;2022-10-15T09:42:57;33.80;;;17.15;;
40449;SDS011;41787;53.570;10.032;2022-10-15T09:45:24;32.97;;;15.93;;
40449;SDS011;41787;53.570;10.032;2022-10-15T09:47:55;26.17;;;15.25;;
40449;SDS011;41787;53.570;10.032;2022-10-15T09:50:21;27.85;;;14.82;;
40449;SDS011;41787;53.570;10.032;2022-10-15T09:52:58;25.25;;;15.02;;
40449;SDS011;41787;53.570;10.032;2022-10-15T09:57:58;27.55;;;14.93;;
40449;SDS011;41787;53.570;10.032;2022-10-15T10:00:40;29.10;;;14.35;;
40449;SDS011;41787;53.570;10.032;2022-10-15T10:03:13;24.55;;;14.50;;
40449;SDS011;41787;53.570;10.032;2022-10-15T10:05:39;27.13;;;14.40;;
40449;SDS011;41787;53.570;10.032;2022-10-15T10:08:20;21.58;;;13.63;;
40449;SDS011;41787;53.570;10.032;2022-10-15T10:13:21;28.73;;;13.07;;
40449;SDS011;41787;53.570;10.032;2022-10-15T10:15:47;25.23;;;13.07;;
40449;SDS011;41787;53.570;10.032;2022-10-15T10:18:19;25.92;;;13.45;;
40449;SDS011;41787;53.570;10.032;2022-10-15T10:23:21;27.35;;;13.60;;
40449;SDS011;41787;53.570;10.032;2022-10-15T10:25:48;24.58;;;13.63;;
40449;SDS011;41787;53.570;10.032;2022-10-15T10:28:15;23.80;;;13.65;;
40449;SDS011;41787;53.570;10.032;2022-10-15T10:35:50;21.67;;;11.50;;
40449;SDS011;41787;53.570;10.032;2022-10-15T10:38:26;20.05;;;10.82;;
40449;SDS011;41787;53.570;10.032;2022-10-15T10:40:53;18.33;;;11.30;;
40449;SDS011;41787;53.570;10.032;2022-10-15T10:43:22;17.10;;;10.52;;
40449;SDS011;41787;53.570;10.032;2022-10-15T10:45:56;18.73;;;10.85;;
40449;SDS011;41787;53.570;10.032;2022-10-15T10:48:24;16.58;;;9.70;;
40449;SDS011;41787;53.570;10.032;2022-10-15T10:56:24;16.35;;;9.73;;
40449;SDS011;41787;53.570;10.032;2022-10-15T10:58:54;19.00;;;9.38;;
40449;SDS011;41787;53.570;10.032;2022-10-15T11:01:21;15.18;;;9.20;;
40449;SDS011;41787;53.570;10.032;2022-10-15T11:03:47;17.90;;;10.38;;
40449;SDS011;41787;53.570;10.032;2022-10-15T11:22:14;12.40;;;6.70;;
40449;SDS011;41787;53.570;10.032;2022-10-15T11:30:07;14.35;;;7.55;;
40449;SDS011;41787;53.570;10.032;2022-10-15T11:32:48;13.10;;;6.75;;
40449;SDS011;41787;53.570;10.032;2022-10-15T11:35:29;12.38;;;6.50;;
40449;SDS011;41787;53.570;10.032;2022-10-15T11:40:31;10.40;;;5.85;;
40449;SDS011;41787;53.570;10.032;2022-10-15T11:43:08;11.53;;;5.07;;
40449;SDS011;41787;53.570;10.032;2022-10-15T11:45:41;14.18;;;5.75;;
40449;SDS011;41787;53.570;10.032;2022-10-15T11:55:46;7.15;;;3.67;;
40449;SDS011;41787;53.570;10.032;2022-10-15T11:58:49;9.27;;;3.60;;
40449;SDS011;41787;53.570;10.032;2022-10-15T12:01:14;6.80;;;2.85;;
40449;SDS011;41787;53.570;10.032;2022-10-15T12:03:49;6.85;;;2.20;;
40449;SDS011;41787;53.570;10.032;2022-10-15T12:06:16;8.98;;;2.75;;
40449;SDS011;41787;53.570;10.032;2022-10-15T12:08:45;5.95;;;2.45;;
40449;SDS011;41787;53.570;10.032;2022-10-15T12:16:23;3.58;;;2.17;;
40449;SDS011;41787;53.570;10.032;2022-10-15T12:18:59;4.80;;;2.00;;
40449;SDS011;41787;53.570;10.032;2022-10-15T12:23:53;5.68;;;2.50;;
40449;SDS011;41787;53.570;10.032;2022-10-15T12:26:25;5.22;;;2.60;;
40449;SDS011;41787;53.570;10.032;2022-10-15T12:28:52;7.05;;;2.67;;
40449;SDS011;41787;53.570;10.032;2022-10-15T12:31:19;8.32;;;2.45;;
40449;SDS011;41787;53.570;10.032;2022-10-15T12:34:04;4.07;;;2.22;;
40449;SDS011;41787;53.570;10.032;2022-10-15T12:36:29;4.75;;;3.10;;
40449;SDS011;41787;53.570;10.032;2022-10-15T12:39:06;4.22;;;2.45;;
40449;SDS011;41787;53.570;10.032;2022-10-15T12:41:40;6.07;;;2.60;;
40449;SDS011;41787;53.570;10.032;2022-10-15T12:44:10;4.53;;;2.80;;
40449;SDS011;41787;53.570;10.032;2022-10-15T12:46:40;8.77;;;2.80;;
40449;SDS011;41787;53.570;10.032;2022-10-15T12:49:44;3.45;;;2.38;;
40449;SDS011;41787;53.570;10.032;2022-10-15T12:52:01;3.78;;;2.60;;
40449;SDS011;41787;53.570;10.032;2022-10-15T12:54:49;5.22;;;2.47;;
40449;SDS011;41787;53.570;10.032;2022-10-15T12:57:59;5.70;;;2.70;;
40449;SDS011;41787;53.570;10.032;2022-10-15T13:02:50;5.07;;;2.70;;
40449;SDS011;41787;53.570;10.032;2022-10-15T13:05:27;5.75;;;2.70;;
40449;SDS011;41787;53.570;10.032;2022-10-15T13:07:53;4.45;;;2.53;;
40449;SDS011;41787;53.570;10.032;2022-10-15T13:10:22;5.10;;;2.58;;
40449;SDS011;41787;53.570;10.032;2022-10-15T13:12:50;7.90;;;2.97;;
40449;SDS011;41787;53.570;10.032;2022-10-15T13:15:23;7.25;;;3.40;;
40449;SDS011;41787;53.570;10.032;2022-10-15T13:17:50;8.18;;;3.30;;
40449;SDS011;41787;53.570;10.032;2022-10-15T13:20:28;10.63;;;3.95;;
40449;SDS011;41787;53.570;10.032;2022-10-15T13:25:39;10.50;;;3.47;;
40449;SDS011;41787;53.570;10.032;2022-10-15T13:30:50;6.85;;;3.13;;
40449;SDS011;41787;53.570;10.032;2022-10-15T13:33:16;8.15;;;3.05;;
40449;SDS011;41787;53.570;10.032;2022-10-15T13:35:42;10.63;;;3.40;;
40449;SDS011;41787;53.570;10.032;2022-10-15T13:38:14;7.45;;;3.63;;
40449;SDS011;41787;53.570;10.032;2022-10-15T13:40:46;5.40;;;3.60;;
40449;SDS011;41787;53.570;10.032;2022-10-15T13:43:15;5.35;;;3.65;;
40449;SDS011;41787;53.570;10.032;2022-10-15T13:45:45;6.85;;;3.67;;
40449;SDS011;41787;53.570;10.032;2022-10-15T13:48:11;6.35;;;3.65;;
40449;SDS011;41787;53.570;10.032;2022-10-15T13:50:38;9.77;;;4.22;;
40449;SDS011;41787;53.570;10.032;2022-10-15T13:53:12;8.15;;;4.15;;
40449;SDS011;41787;53.570;10.032;2022-10-15T13:55:43;7.10;;;4.47;;
40449;SDS011;41787;53.570;10.032;2022-10-15T13:58:17;9.90;;;5.70;;
40449;SDS011;41787;53.570;10.032;2022-10-15T14:00:48;11.18;;;6.00;;
40449;SDS011;41787;53.570;10.032;2022-10-15T14:03:19;12.43;;;7.22;;
40449;SDS011;41787;53.570;10.032;2022-10-15T14:05:49;10.93;;;6.38;;
40449;SDS011;41787;53.570;10.032;2022-10-15T14:08:18;9.77;;;6.47;;
40449;SDS011;41787;53.570;10.032;2022-10-15T14:10:45;9.25;;;6.20;;
40449;SDS011;41787;53.570;10.032;2022-10-15T14:13:11;13.77;;;7.32;;
40449;SDS011;41787;53.570;10.032;2022-10-15T14:15:38;14.23;;;8.45;;
40449;SDS011;41787;53.570;10.032;2022-10-15T14:18:07;11.23;;;7.22;;
40449;SDS011;41787;53.570;10.032;2022-10-15T14:20:34;11.48;;;7.65;;
40449;SDS011;41787;53.570;10.032;2022-10-15T14:23:00;11.68;;;7.97;;
40449;SDS011;41787;53.570;10.032;2022-10-15T14:25:26;16.05;;;7.55;;
40449;SDS011;41787;53.570;10.032;2022-10-15T14:28:01;11.50;;;7.95;;
40449;SDS011;41787;53.570;10.032;2022-10-15T14:30:29;14.25;;;8.90;;
40449;SDS011;41787;53.570;10.032;2022-10-15T14:32:56;16.77;;;10.32;;
40449;SDS011;41787;53.570;10.032;2022-10-15T14:35:29;13.40;;;9.57;;
40449;SDS011;41787;53.570;10.032;2022-10-15T14:40:34;13.82;;;9.50;;
40449;SDS011;41787;53.570;10.032;2022-10-15T14:43:02;13.73;;;8.90;;
40449;SDS011;41787;53.570;10.032;2022-10-15T14:45:29;18.55;;;10.35;;
40449;SDS011;41787;53.570;10.032;2022-10-15T14:48:06;17.73;;;9.45;;
40449;SDS011;41787;53.570;10.032;2022-10-15T14:50:34;13.38;;;9.23;;
40449;SDS011;41787;53.570;10.032;2022-10-15T14:53:05;15.95;;;10.15;;
40449;SDS011;41787;53.570;10.032;2022-10-15T14:57:59;19.15;;;11.07;;
40449;SDS011;41787;53.570;10.032;2022-10-15T15:00:32;12.30;;;10.00;;
40449;SDS011;41787;53.570;10.032;2022-10-15T15:03:00;15.10;;;10.13;;
40449;SDS011;41787;53.570;10.032;2022-10-15T15:05:27;13.10;;;9.63;;
40449;SDS011;41787;53.570;10.032;2022-10-15T15:07:53;13.75;;;10.55;;
40449;SDS011;41787;53.570;10.032;2022-10-15T15:10:21;17.55;;;11.85;;
40449;SDS011;41787;53.570;10.032;2022-10-15T15:12:51;13.90;;;11.43;;
40449;SDS011;41787;53.570;10.032;2022-10-15T15:15:20;15.63;;;10.07;;
40449;SDS011;41787;53.570;10.032;2022-10-15T15:17:46;12.93;;;9.52;;
40449;SDS011;41787;53.570;10.032;2022-10-15T15:20:13;12.80;;;10.65;;
40449;SDS011;41787;53.570;10.032;2022-10-15T15:22:39;12.70;;;8.85;;
40449;SDS011;41787;53.570;10.032;2022-10-15T15:25:13;13.80;;;10.10;;
40449;SDS011;41787;53.570;10.032;2022-10-15T15:27:40;11.90;;;8.85;;
40449;SDS011;41787;53.570;10.032;2022-10-15T15:30:07;11.50;;;9.25;;
40449;SDS011;41787;53.570;10.032;2022-10-15T15:32:37;13.18;;;8.82;;
40449;SDS011;41787;53.570;10.032;2022-10-15T15:35:13;10.30;;;8.77;;
40449;SDS011;41787;53.570;10.032;2022-10-15T15:37:40;11.80;;;9.45;;
40449;SDS011;41787;53.570;10.032;2022-10-15T15:40:07;10.48;;;8.88;;
40449;SDS011;41787;53.570;10.032;2022-10-15T15:42:33;10.73;;;9.32;;
40449;SDS011;41787;53.570;10.032;2022-10-15T15:44:59;10.93;;;9.32;;
40449;SDS011;41787;53.570;10.032;2022-10-15T15:47:25;11.65;;;9.27;;
40449;SDS011;41787;53.570;10.032;2022-10-15T15:49:50;11.63;;;9.90;;
40449;SDS011;41787;53.570;10.032;2022-10-15T15:52:16;14.70;;;10.40;;
40449;SDS011;41787;53.570;10.032;2022-10-15T15:54:43;12.55;;;10.18;;
40449;SDS011;41787;53.570;10.032;2022-10-15T15:57:10;14.50;;;11.00;;
40449;SDS011;41787;53.570;10.032;2022-10-15T15:59:36;13.63;;;10.70;;